Time;durP1;ratioP1;P1;durP2;ratioP2;P2;SDS_P1;SDS_P2;PMS_P1;PMS_P2;Temp;Humidity;BMP_temperature;BMP_pressure;BME280_temperature;BME280_humidity;BME280_pressure;Samples;Min_cycle;Max_cycle;Signal;HPM_P1;HPM_P2
2023/02/23 00:01:18;;;;;;;94.38;67.38;;;7.70;99.90;;;;;;5015650;28;20149;-75
2023/02/23 00:03:45;;;;;;;85.75;62.33;;;7.70;99.90;;;;;;5020237;28;20073;-75
2023/02/23 00:06:12;;;;;;;95.55;64.50;;;7.70;99.90;;;;;;5017461;28;20104;-75
2023/02/23 00:08:39;;;;;;;91.70;66.15;;;7.70;99.90;;;;;;5016966;28;20083;-75
2023/02/23 00:11:10;;;;;;;92.15;67.25;;;7.70;99.90;;;;;;5011465;28;20525;-75
2023/02/23 00:13:37;;;;;;;96.40;67.10;;;7.70;99.90;;;;;;5021890;28;20050;-74
2023/02/23 00:16:05;;;;;;;92.28;65.40;;;7.70;99.90;;;;;;5006807;28;20049;-75
2023/02/23 00:18:39;;;;;;;96.55;68.90;;;7.70;99.90;;;;;;5002150;28;20576;-75
2023/02/23 00:21:05;;;;;;;90.32;65.43;;;7.70;99.90;;;;;;5004361;28;20115;-75
2023/02/23 00:23:31;;;;;;;85.50;62.03;;;7.70;99.90;;;;;;5011968;28;20041;-75
2023/02/23 00:25:58;;;;;;;96.82;68.20;;;7.70;99.90;;;;;;5002130;28;20064;-75
2023/02/23 00:28:27;;;;;;;90.05;64.25;;;7.70;99.90;;;;;;5005558;28;20121;-75
2023/02/23 00:30:52;;;;;;;87.55;63.28;;;7.70;99.90;;;;;;5023148;28;20563;-75
2023/02/23 00:33:18;;;;;;;95.78;67.60;;;7.70;99.90;;;;;;5006037;28;20044;-75
2023/02/23 00:35:44;;;;;;;110.75;72.13;;;7.70;99.90;;;;;;4989931;28;20490;-75
2023/02/23 00:38:10;;;;;;;105.00;71.00;;;7.70;99.90;;;;;;5028043;28;20137;-75
2023/02/23 00:40:39;;;;;;;102.63;72.05;;;7.70;99.90;;;;;;5007908;28;20052;-75
2023/02/23 00:43:05;;;;;;;100.28;70.30;;;7.70;99.90;;;;;;5000555;28;20111;-74
2023/02/23 00:45:31;;;;;;;107.38;72.13;;;7.70;99.90;;;;;;4991493;28;20702;-75
2023/02/23 00:47:57;;;;;;;107.80;71.95;;;7.70;99.90;;;;;;4998472;28;20156;-75
2023/02/23 00:50:23;;;;;;;113.20;75.25;;;7.70;99.90;;;;;;5007760;28;20059;-75
2023/02/23 00:52:49;;;;;;;115.65;73.70;;;7.70;99.90;;;;;;5013876;28;20092;-75
2023/02/23 00:55:15;;;;;;;108.55;73.95;;;7.70;99.90;;;;;;5015829;28;20069;-75
2023/02/23 00:57:41;;;;;;;114.28;74.55;;;7.70;99.90;;;;;;5013194;28;20050;-75
2023/02/23 01:00:17;;;;;;;119.63;76.72;;;7.70;99.90;;;;;;5002453;28;20041;-75
2023/02/23 01:02:47;;;;;;;110.97;75.18;;;7.70;99.90;;;;;;5013195;28;20050;-75
2023/02/23 01:05:13;;;;;;;121.47;78.13;;;7.70;99.90;;;;;;4995656;28;20374;-76
2023/02/23 01:07:39;;;;;;;121.38;76.43;;;7.70;99.90;;;;;;5005450;28;20108;-76
2023/02/23 01:10:18;;;;;;;122.65;79.95;;;7.70;99.90;;;;;;4987938;28;20056;-76
2023/02/23 01:12:48;;;;;;;108.95;72.93;;;7.70;99.90;;;;;;4995842;28;20088;-77
2023/02/23 01:15:14;;;;;;;109.95;73.50;;;7.70;99.90;;;;;;5001580;28;20049;-76
2023/02/23 01:17:41;;;;;;;124.38;79.50;;;7.70;99.90;;;;;;5011048;28;20053;-76
2023/02/23 01:20:14;;;;;;;118.25;76.78;;;7.70;99.90;;;;;;5003764;28;20500;-76
2023/02/23 01:22:42;;;;;;;119.82;78.15;;;7.70;99.90;;;;;;5031724;28;20111;-77
2023/02/23 01:25:08;;;;;;;121.13;79.25;;;7.70;99.90;;;;;;5002624;28;20049;-76
2023/02/23 01:27:34;;;;;;;118.20;78.35;;;7.70;99.90;;;;;;4995721;28;20053;-77
2023/02/23 01:30:00;;;;;;;112.53;76.15;;;7.70;99.90;;;;;;5007639;28;20045;-77
2023/02/23 01:32:26;;;;;;;114.10;77.05;;;7.70;99.90;;;;;;4997261;28;20040;-76
2023/02/23 01:34:51;;;;;;;123.25;78.32;;;7.70;99.90;;;;;;5000582;28;20123;-76
2023/02/23 01:37:17;;;;;;;117.47;76.65;;;7.70;99.90;;;;;;5003840;28;20082;-76
2023/02/23 01:39:43;;;;;;;120.10;78.63;;;7.70;99.90;;;;;;4999510;28;20085;-77
2023/02/23 01:42:12;;;;;;;117.90;76.97;;;7.70;99.90;;;;;;4992295;28;20048;-76
2023/02/23 01:44:38;;;;;;;123.10;80.00;;;7.70;99.90;;;;;;5009649;28;20077;-77
2023/02/23 01:47:04;;;;;;;126.72;80.10;;;7.70;99.90;;;;;;5018008;28;20081;-75
2023/02/23 01:49:35;;;;;;;127.88;82.65;;;7.70;99.90;;;;;;5000303;28;20471;-75
2023/02/23 01:52:00;;;;;;;;;;;7.60;99.90;;;;;;5003378;28;20057;-75
2023/02/23 01:54:32;;;;;;;123.78;78.68;;;7.70;99.90;;;;;;5031806;28;19932;-76
2023/02/23 01:57:03;;;;;;;133.75;80.95;;;7.70;99.90;;;;;;5010658;28;20045;-76
2023/02/23 01:59:49;;;;;;;134.32;82.95;;;7.70;99.90;;;;;;5009183;28;20060;-75
2023/02/23 02:02:20;;;;;;;119.18;76.47;;;7.70;99.90;;;;;;5029279;28;20947;-75
2023/02/23 02:04:50;;;;;;;118.13;76.35;;;7.70;99.90;;;;;;5015081;28;20085;-75
2023/02/23 02:07:21;;;;;;;134.68;81.10;;;7.70;99.90;;;;;;4968958;28;20050;-75
2023/02/23 02:12:33;;;;;;;128.25;76.93;;;7.70;99.90;;;;;;5007543;28;20057;-75
2023/02/23 02:15:01;;;;;;;123.18;77.53;;;7.70;99.90;;;;;;5006744;28;20060;-74
2023/02/23 02:17:40;;;;;;;119.35;76.53;;;7.70;99.90;;;;;;5013201;28;20038;-75
2023/02/23 02:20:37;;;;;;;122.05;78.28;;;7.70;99.90;;;;;;5012411;28;20135;-75
2023/02/23 02:23:14;;;;;;;130.38;77.95;;;7.70;99.90;;;;;;5016441;28;20061;-75
2023/02/23 02:26:09;;;;;;;124.35;77.93;;;7.60;99.90;;;;;;5005908;28;20447;-75
2023/02/23 02:28:58;;;;;;;128.10;76.57;;;7.70;99.90;;;;;;5018927;28;20939;-75
2023/02/23 02:31:58;;;;;;;118.75;75.70;;;7.70;99.90;;;;;;5010588;28;20045;-76
2023/02/23 02:34:48;;;;;;;125.22;76.07;;;7.70;99.90;;;;;;5014409;28;20041;-76
2023/02/23 02:37:27;;;;;;;134.27;79.88;;;7.70;99.90;;;;;;5012610;28;20710;-76
2023/02/23 02:40:20;;;;;;;128.82;78.28;;;7.70;99.90;;;;;;5022105;28;20045;-75
2023/02/23 02:43:10;;;;;;;117.07;73.35;;;7.60;99.90;;;;;;4976227;28;20145;-75
2023/02/23 02:45:45;;;;;;;127.72;78.07;;;7.60;99.90;;;;;;5014760;28;20045;-75
2023/02/23 02:48:17;;;;;;;127.45;76.13;;;7.60;99.90;;;;;;5033920;28;20041;-75
2023/02/23 02:50:54;;;;;;;117.70;75.97;;;7.60;99.90;;;;;;5023083;28;20071;-76
2023/02/23 02:53:50;;;;;;;125.78;76.40;;;7.60;99.90;;;;;;5008003;28;20054;-76
2023/02/23 02:56:18;;;;;;;132.32;77.40;;;7.70;99.90;;;;;;5022616;28;20045;-77
2023/02/23 02:58:45;;;;;;;130.10;78.63;;;7.60;99.90;;;;;;5016176;28;20164;-76
2023/02/23 04:18:57;;;;;;;222.27;89.10;;;7.50;99.90;;;;;;5027395;28;19931;-75
2023/02/23 04:21:23;;;;;;;231.32;91.70;;;7.50;99.90;;;;;;5006467;28;20046;-75
2023/02/23 04:23:49;;;;;;;187.57;86.75;;;7.50;99.90;;;;;;5028132;28;20049;-75
2023/02/23 04:26:15;;;;;;;194.38;87.75;;;7.60;99.90;;;;;;4999603;28;20038;-76
2023/02/23 04:28:40;;;;;;;169.50;81.38;;;7.60;99.90;;;;;;5031190;28;20060;-76
2023/02/23 04:31:07;;;;;;;227.07;91.00;;;7.50;99.90;;;;;;4991721;28;20164;-75
2023/02/23 04:33:32;;;;;;;174.52;80.82;;;7.60;99.90;;;;;;5017164;28;20128;-76
2023/02/23 04:35:58;;;;;;;286.85;99.32;;;7.50;99.90;;;;;;5004791;28;20065;-78
2023/02/23 04:38:24;;;;;;;237.38;91.40;;;7.50;99.90;;;;;;4984796;28;20042;-78
2023/02/23 04:40:50;;;;;;;249.27;93.70;;;7.50;99.90;;;;;;5004342;28;20564;-78
2023/02/23 04:43:19;;;;;;;214.90;86.63;;;7.50;99.90;;;;;;5003267;28;20132;-78
2023/02/23 04:45:45;;;;;;;197.32;88.70;;;7.50;99.90;;;;;;4994808;28;20500;-76
2023/02/23 04:48:14;;;;;;;283.73;95.60;;;7.50;99.90;;;;;;5020870;28;20095;-76
2023/02/23 04:50:40;;;;;;;160.60;78.68;;;7.50;99.90;;;;;;5012177;28;20037;-78
2023/02/23 04:53:06;;;;;;;158.05;79.03;;;7.50;99.90;;;;;;5020110;28;20051;-78
2023/02/23 04:55:32;;;;;;;197.65;84.40;;;7.50;99.90;;;;;;5016188;28;20121;-79
2023/02/23 04:57:59;;;;;;;244.55;93.32;;;7.50;99.90;;;;;;5009389;28;20052;-78
2023/02/23 05:00:28;;;;;;;176.43;81.95;;;7.50;99.90;;;;;;4998981;28;20603;-78
2023/02/23 05:02:57;;;;;;;183.15;79.28;;;7.50;99.90;;;;;;4998396;28;20085;-78
2023/02/23 05:05:22;;;;;;;202.82;83.63;;;7.50;99.90;;;;;;4987434;28;20054;-78
2023/02/23 05:07:48;;;;;;;178.23;77.60;;;7.50;99.90;;;;;;5001955;28;20052;-78
2023/02/23 05:10:14;;;;;;;194.43;81.85;;;7.50;99.90;;;;;;5014570;28;20348;-78
2023/02/23 05:12:40;;;;;;;239.85;89.72;;;7.50;99.90;;;;;;5009430;28;20038;-78
2023/02/23 05:15:06;;;;;;;210.68;83.85;;;7.50;99.90;;;;;;4987266;28;20057;-78
2023/02/23 05:17:32;;;;;;;191.90;81.55;;;7.50;99.90;;;;;;5018868;28;20064;-78
2023/02/23 05:19:57;;;;;;;214.88;84.30;;;7.50;99.90;;;;;;5010831;28;20407;-78
2023/02/23 05:22:24;;;;;;;220.00;85.85;;;7.50;99.90;;;;;;4986674;28;20104;-78
2023/02/23 05:24:50;;;;;;;171.88;77.38;;;7.50;99.90;;;;;;5021141;28;20054;-79
2023/02/23 05:27:16;;;;;;;198.65;78.30;;;7.50;99.90;;;;;;5001061;28;20041;-78
2023/02/23 05:29:42;;;;;;;189.57;73.30;;;7.50;99.90;;;;;;5011478;28;20054;-77
2023/02/23 05:32:08;;;;;;;212.70;80.72;;;7.50;99.90;;;;;;5017785;28;20042;-78
2023/02/23 05:34:34;;;;;;;206.27;77.18;;;7.50;99.90;;;;;;5021006;28;20060;-78
2023/02/23 05:37:00;;;;;;;191.23;75.00;;;7.50;99.90;;;;;;5018793;28;20046;-78
2023/02/23 05:39:25;;;;;;;151.27;70.05;;;7.50;99.90;;;;;;5015934;28;20046;-78
2023/02/23 05:41:51;;;;;;;183.82;75.18;;;7.40;99.90;;;;;;5006181;28;20049;-78
2023/02/23 05:44:17;;;;;;;191.98;74.75;;;7.40;99.90;;;;;;5017766;28;20053;-78
2023/02/23 05:46:46;;;;;;;203.52;77.05;;;7.40;99.90;;;;;;4998851;28;20069;-78
2023/02/23 05:49:11;;;;;;;166.85;70.43;;;7.40;99.90;;;;;;5021097;28;20050;-78
2023/02/23 05:51:38;;;;;;;136.07;66.55;;;7.40;99.90;;;;;;4992865;28;20049;-78
2023/02/23 05:54:04;;;;;;;140.65;66.80;;;7.40;99.90;;;;;;5005544;28;20050;-78
2023/02/23 05:56:30;;;;;;;123.97;63.08;;;7.40;99.90;;;;;;5005639;28;20088;-78
2023/02/23 05:58:57;;;;;;;149.98;66.20;;;7.40;99.90;;;;;;5018835;28;20074;-78
2023/02/23 06:01:24;;;;;;;166.13;65.05;;;7.40;99.90;;;;;;5025891;28;20127;-77
2023/02/23 06:03:51;;;;;;;130.10;63.58;;;7.50;99.90;;;;;;5010835;28;20079;-78
2023/02/23 06:06:17;;;;;;;142.43;62.88;;;7.40;99.90;;;;;;5008112;28;20041;-78
2023/02/23 06:08:43;;;;;;;147.30;63.72;;;7.40;99.90;;;;;;5016361;28;20150;-78
2023/02/23 06:11:10;;;;;;;125.30;60.33;;;7.40;99.90;;;;;;5020888;28;20060;-78
2023/02/23 06:13:36;;;;;;;120.10;59.22;;;7.40;99.90;;;;;;4991413;28;20042;-78
2023/02/23 06:16:02;;;;;;;133.13;58.70;;;7.40;99.90;;;;;;5022461;28;20060;-78
2023/02/23 06:18:28;;;;;;;114.32;56.50;;;7.40;99.90;;;;;;5020645;28;20072;-78
2023/02/23 06:20:58;;;;;;;117.90;55.67;;;7.40;99.90;;;;;;5018366;28;20363;-78
2023/02/23 06:23:23;;;;;;;101.50;52.77;;;7.30;99.90;;;;;;5021114;28;20073;-77
2023/02/23 06:25:49;;;;;;;94.70;50.33;;;7.40;99.90;;;;;;5007154;28;20085;-78
2023/02/23 06:28:15;;;;;;;118.88;52.92;;;7.30;99.90;;;;;;5025224;28;20085;-78
2023/02/23 06:30:45;;;;;;;90.13;48.55;;;7.30;99.90;;;;;;4990466;28;20049;-78
2023/02/23 06:33:11;;;;;;;86.60;46.60;;;7.40;99.90;;;;;;5009835;28;20048;-78
2023/02/23 06:35:37;;;;;;;84.07;47.28;;;7.30;99.90;;;;;;5021343;28;20045;-78
2023/02/23 06:38:05;;;;;;;91.00;46.72;;;7.30;99.90;;;;;;5007859;28;20049;-78
2023/02/23 06:40:31;;;;;;;96.43;47.72;;;7.30;99.90;;;;;;5001964;28;20096;-78
2023/02/23 06:43:02;;;;;;;85.97;45.83;;;7.30;99.90;;;;;;5017647;28;20064;-78
2023/02/23 06:45:28;;;;;;;107.10;46.28;;;7.30;99.90;;;;;;4991411;28;20088;-78
2023/02/23 06:47:57;;;;;;;78.57;42.13;;;7.30;99.90;;;;;;5010266;28;20143;-73
2023/02/23 06:50:22;;;;;;;73.97;42.72;;;7.30;99.90;;;;;;5009403;28;20060;-73
2023/02/23 06:52:48;;;;;;;88.38;43.38;;;7.30;99.90;;;;;;5023618;28;20042;-73
2023/02/23 06:55:14;;;;;;;71.45;42.28;;;7.30;99.90;;;;;;5020933;28;20068;-73
2023/02/23 06:57:41;;;;;;;77.20;40.65;;;7.30;99.90;;;;;;5011686;28;20075;-73
2023/02/23 07:00:08;;;;;;;73.07;41.85;;;7.30;99.90;;;;;;5016870;28;20061;-73
2023/02/23 07:02:35;;;;;;;104.82;44.42;;;7.40;99.90;;;;;;5008766;28;20045;-73
2023/02/23 07:05:01;;;;;;;73.85;42.15;;;7.30;99.90;;;;;;4994536;28;20112;-73
2023/02/23 07:07:27;;;;;;;80.25;41.80;;;7.30;99.90;;;;;;5017834;28;20046;-73
2023/02/23 07:09:53;;;;;;;73.15;40.65;;;7.30;99.90;;;;;;4984967;28;20076;-73
2023/02/23 07:12:19;;;;;;;63.10;38.03;;;7.30;99.90;;;;;;5015902;28;20515;-72
2023/02/23 07:14:45;;;;;;;72.88;40.67;;;7.30;99.90;;;;;;5000279;28;20347;-73
2023/02/23 07:17:12;;;;;;;77.03;41.65;;;7.30;99.90;;;;;;5006877;28;20466;-73
2023/02/23 07:19:37;;;;;;;79.05;42.95;;;7.30;99.90;;;;;;5017054;28;20045;-72
2023/02/23 07:22:03;;;;;;;71.10;40.63;;;7.30;99.90;;;;;;5014325;28;20132;-73
2023/02/23 07:24:29;;;;;;;74.07;41.00;;;7.30;99.90;;;;;;5004906;28;20088;-73
2023/02/23 07:26:59;;;;;;;73.47;41.58;;;7.30;99.90;;;;;;5003530;28;20073;-72
2023/02/23 07:29:27;;;;;;;68.97;39.58;;;7.30;99.90;;;;;;5002605;28;20034;-73
2023/02/23 07:31:53;;;;;;;70.55;41.13;;;7.30;99.90;;;;;;5006442;28;20053;-73
2023/02/23 07:34:19;;;;;;;71.88;40.60;;;7.30;99.90;;;;;;5017946;28;20046;-73
2023/02/23 07:36:45;;;;;;;67.00;40.03;;;7.30;99.90;;;;;;5013000;28;20111;-73
2023/02/23 07:39:11;;;;;;;67.20;40.40;;;7.30;99.90;;;;;;4998655;28;20046;-74
2023/02/23 07:41:37;;;;;;;63.50;38.75;;;7.30;99.90;;;;;;5017925;28;20042;-73
2023/02/23 07:44:03;;;;;;;65.88;40.05;;;7.30;99.90;;;;;;5005337;28;20385;-73
2023/02/23 07:46:32;;;;;;;61.28;37.85;;;7.30;99.90;;;;;;5021684;28;20100;-73
2023/02/23 07:48:58;;;;;;;66.70;40.03;;;7.30;99.90;;;;;;5017916;28;20052;-74
2023/02/23 07:51:26;;;;;;;60.40;39.00;;;7.30;99.90;;;;;;5003373;28;20041;-73
2023/02/23 07:53:54;;;;;;;60.88;39.13;;;7.30;99.90;;;;;;5011076;28;20077;-73
2023/02/23 07:56:22;;;;;;;60.28;39.13;;;7.30;99.90;;;;;;5004452;28;20057;-73
2023/02/23 07:58:48;;;;;;;68.68;41.50;;;7.30;99.90;;;;;;5015354;28;20215;-73
2023/02/23 08:01:14;;;;;;;64.15;40.20;;;7.20;99.90;;;;;;5021227;28;20060;-73
2023/02/23 08:03:40;;;;;;;68.38;40.65;;;7.30;99.90;;;;;;5007788;28;20045;-74
2023/02/23 08:06:06;;;;;;;67.10;39.97;;;7.30;99.90;;;;;;5003775;28;20049;-73
2023/02/23 08:08:34;;;;;;;69.80;40.97;;;7.30;99.90;;;;;;5003116;28;20038;-73
2023/02/23 08:11:04;;;;;;;65.63;39.90;;;7.30;99.90;;;;;;5004637;28;20041;-73
2023/02/23 08:13:30;;;;;;;60.85;37.15;;;7.30;99.90;;;;;;5017447;28;20049;-73
2023/02/23 08:15:57;;;;;;;61.63;39.35;;;7.30;99.90;;;;;;5004038;28;20233;-74
2023/02/23 08:18:23;;;;;;;65.50;40.42;;;7.30;99.90;;;;;;5002462;28;20053;-74
2023/02/23 08:20:49;;;;;;;66.35;41.53;;;7.30;99.90;;;;;;4989352;28;20107;-74
2023/02/23 08:23:18;;;;;;;71.75;43.90;;;7.30;99.90;;;;;;5017253;28;20041;-73
2023/02/23 08:25:44;;;;;;;64.63;40.65;;;7.30;99.90;;;;;;5013701;28;20099;-73
2023/02/23 08:28:11;;;;;;;64.28;39.30;;;7.30;99.90;;;;;;5004032;28;20041;-73
2023/02/23 08:30:36;;;;;;;72.15;41.42;;;7.30;99.90;;;;;;5013518;28;20056;-73
2023/02/23 08:33:04;;;;;;;66.72;41.33;;;7.30;99.90;;;;;;4986168;28;20404;-73
2023/02/23 08:35:30;;;;;;;61.55;39.72;;;7.30;99.90;;;;;;5004813;28;20821;-73
2023/02/23 08:37:56;;;;;;;70.22;41.20;;;7.30;99.90;;;;;;5012070;28;20112;-73
2023/02/23 08:40:23;;;;;;;65.35;40.00;;;7.30;99.90;;;;;;5011883;28;20112;-73
2023/02/23 08:42:50;;;;;;;70.88;42.22;;;7.30;99.90;;;;;;4999703;28;20563;-74
2023/02/23 08:45:17;;;;;;;68.57;41.90;;;7.30;99.90;;;;;;5012404;28;20053;-73
2023/02/23 08:47:43;;;;;;;68.95;41.83;;;7.30;99.90;;;;;;5017079;28;20072;-73
2023/02/23 08:50:10;;;;;;;69.47;41.63;;;7.40;99.90;;;;;;5012594;28;20080;-73
2023/02/23 08:52:37;;;;;;;72.57;43.33;;;7.30;99.90;;;;;;5004027;28;20080;-74
2023/02/23 08:55:03;;;;;;;76.97;44.80;;;7.40;99.90;;;;;;5007061;28;20053;-73
2023/02/23 08:57:35;;;;;;;69.63;42.92;;;7.40;99.90;;;;;;5002671;28;20099;-73
2023/02/23 09:00:02;;;;;;;71.03;42.42;;;7.40;99.90;;;;;;4993774;28;20042;-73
2023/02/23 09:02:27;;;;;;;69.25;42.33;;;7.40;99.90;;;;;;4990185;28;20053;-73
2023/02/23 09:04:58;;;;;;;73.93;43.08;;;7.40;99.90;;;;;;5015955;28;20050;-73
2023/02/23 09:07:23;;;;;;;68.57;42.40;;;7.40;99.90;;;;;;4987849;28;20046;-73
2023/02/23 09:09:56;;;;;;;76.15;43.45;;;7.40;99.90;;;;;;5007725;28;20060;-73
2023/02/23 09:12:22;;;;;;;77.22;44.45;;;7.50;99.90;;;;;;5015088;28;20053;-73
2023/02/23 09:14:49;;;;;;;74.32;43.58;;;7.50;99.90;;;;;;4987560;28;20385;-73
2023/02/23 09:17:16;;;;;;;67.85;42.00;;;7.50;99.90;;;;;;5023585;28;20049;-73
2023/02/23 09:19:42;;;;;;;76.90;46.10;;;7.50;99.90;;;;;;5018905;28;20045;-73
2023/02/23 09:22:08;;;;;;;71.95;46.53;;;7.60;99.90;;;;;;5017300;28;20042;-73
2023/02/23 09:24:34;;;;;;;72.32;44.45;;;7.50;99.90;;;;;;4989737;28;20396;-73
2023/02/23 09:27:00;;;;;;;78.03;49.40;;;7.60;99.90;;;;;;4987163;28;20056;-73
2023/02/23 09:29:26;;;;;;;76.80;44.78;;;7.60;99.90;;;;;;5020058;28;20128;-72
2023/02/23 09:31:51;;;;;;;72.97;45.17;;;7.60;99.90;;;;;;5018137;28;20128;-74
2023/02/23 09:34:18;;;;;;;75.43;42.17;;;7.60;99.90;;;;;;4987403;28;20104;-73
2023/02/23 09:36:44;;;;;;;70.75;43.47;;;7.60;99.90;;;;;;5013497;28;20050;-73
2023/02/23 09:39:10;;;;;;;67.57;41.25;;;7.60;99.90;;;;;;5008013;28;20054;-73
2023/02/23 09:41:59;;;;;;;64.82;41.92;;;7.70;99.90;;;;;;5010782;28;20056;-73
2023/02/23 09:44:28;;;;;;;62.42;39.83;;;7.70;99.90;;;;;;5019566;28;20108;-73
2023/02/23 09:47:03;;;;;;;67.80;40.90;;;7.70;99.90;;;;;;5002443;28;20476;-74
2023/02/23 09:49:33;;;;;;;56.00;37.30;;;7.70;99.90;;;;;;5022294;28;20053;-74
2023/02/23 09:52:02;;;;;;;54.45;36.25;;;7.80;99.90;;;;;;5012412;28;20057;-73
2023/02/23 09:54:33;;;;;;;61.65;38.40;;;7.80;99.90;;;;;;5015633;28;20496;-73
2023/02/23 09:57:02;;;;;;;61.33;37.00;;;7.80;99.90;;;;;;5014384;28;20049;-74
2023/02/23 09:59:28;;;;;;;58.72;37.97;;;7.80;99.90;;;;;;5021068;28;20068;-73
2023/02/23 10:02:04;;;;;;;52.30;36.03;;;7.80;99.90;;;;;;5011281;28;20049;-73
2023/02/23 10:04:36;;;;;;;55.05;35.53;;;7.80;99.90;;;;;;4996919;28;20049;-74
2023/02/23 10:07:13;;;;;;;56.38;35.10;;;7.80;99.90;;;;;;5018761;28;20056;-74
2023/02/23 10:10:20;;;;;;;56.30;35.85;;;7.80;99.90;;;;;;5022352;28;20046;-73
2023/02/23 10:13:08;;;;;;;62.58;38.33;;;7.80;99.90;;;;;;5008244;28;20058;-73
2023/02/23 10:15:51;;;;;;;59.38;36.95;;;7.80;99.90;;;;;;5006028;28;20050;-73
2023/02/23 10:18:42;;;;;;;51.80;33.78;;;7.80;99.90;;;;;;5002487;28;20058;-73
2023/02/23 10:21:24;;;;;;;55.80;35.13;;;7.80;99.90;;;;;;5012882;28;20041;-74
2023/02/23 10:24:02;;;;;;;61.85;35.78;;;7.80;99.90;;;;;;4999346;28;20127;-73
2023/02/23 10:26:53;;;;;;;59.38;37.33;;;7.80;99.90;;;;;;5011116;28;20107;-74
2023/02/23 10:29:30;;;;;;;61.92;37.17;;;7.80;99.90;;;;;;5006470;28;20058;-73
2023/02/23 10:32:17;;;;;;;66.30;37.78;;;7.90;99.90;;;;;;5017241;28;20492;-73
2023/02/23 10:34:45;;;;;;;63.70;35.50;;;7.90;99.90;;;;;;5013026;28;20057;-74
2023/02/23 10:37:11;;;;;;;66.20;38.50;;;7.90;99.90;;;;;;5019073;28;20049;-73
2023/02/23 10:39:40;;;;;;;66.88;37.80;;;8.00;99.90;;;;;;5005051;28;20052;-73
2023/02/23 10:42:14;;;;;;;59.65;36.90;;;8.00;99.90;;;;;;5014469;28;20053;-73
2023/02/23 10:44:43;;;;;;;61.53;36.40;;;8.00;99.90;;;;;;5017482;28;20049;-74
2023/02/23 10:47:21;;;;;;;61.17;37.10;;;7.90;99.90;;;;;;5014408;28;20061;-74
2023/02/23 10:49:51;;;;;;;63.95;37.08;;;8.00;99.90;;;;;;5011555;28;20054;-74
2023/02/23 10:52:31;;;;;;;58.03;35.38;;;8.00;99.90;;;;;;4995457;28;20552;-74
2023/02/23 10:54:57;;;;;;;60.92;36.10;;;8.00;99.90;;;;;;5016870;28;20404;-73
2023/02/23 10:57:30;;;;;;;61.10;36.03;;;8.00;99.90;;;;;;5005987;28;20120;-73
2023/02/23 11:00:15;;;;;;;61.03;34.97;;;8.10;99.90;;;;;;5003235;28;20112;-74
2023/02/23 11:02:43;;;;;;;58.70;37.75;;;8.10;99.90;;;;;;5013116;28;20045;-73
2023/02/23 11:05:46;;;;;;;59.92;35.30;;;8.10;99.90;;;;;;5006115;28;20053;-73
2023/02/23 11:08:32;;;;;;;56.97;35.40;;;8.10;99.90;;;;;;4967294;28;20126;-72
2023/02/23 11:11:14;;;;;;;59.10;35.95;;;8.20;99.90;;;;;;5004965;28;20684;-72
2023/02/23 11:13:45;;;;;;;64.05;36.67;;;8.20;99.90;;;;;;5027578;28;20174;-73
2023/02/23 11:16:21;;;;;;;59.42;36.63;;;8.20;99.90;;;;;;5023531;28;20052;-72
2023/02/23 11:18:55;;;;;;;59.35;37.65;;;8.30;99.90;;;;;;5000843;28;20056;-72
2023/02/23 11:21:32;;;;;;;55.63;34.60;;;8.30;99.90;;;;;;5014047;28;20042;-72
2023/02/23 11:24:11;;;;;;;60.40;35.75;;;8.30;99.90;;;;;;5004862;28;20084;-73
2023/02/23 11:26:39;;;;;;;59.95;37.63;;;8.40;99.90;;;;;;4994235;28;20045;-73
2023/02/23 11:29:36;;;;;;;65.50;37.20;;;8.50;99.90;;;;;;5020296;28;20112;-72
2023/02/23 11:32:17;;;;;;;63.63;37.15;;;8.50;99.90;;;;;;5012885;28;20119;-73
2023/02/23 11:34:44;;;;;;;61.35;37.70;;;8.60;99.90;;;;;;5029008;28;20053;-73
2023/02/23 11:37:22;;;;;;;63.75;37.95;;;8.60;99.90;;;;;;5001052;28;20056;-73
2023/02/23 11:39:53;;;;;;;62.20;38.58;;;8.60;99.90;;;;;;4990947;28;20064;-72
2023/02/23 11:42:25;;;;;;;65.72;39.53;;;8.60;99.90;;;;;;5002697;28;20054;-73
2023/02/23 11:45:20;;;;;;;68.65;40.72;;;8.60;99.90;;;;;;5020364;28;20041;-73
2023/02/23 11:47:49;;;;;;;64.47;39.03;;;8.60;99.90;;;;;;5007374;28;20526;-72
2023/02/23 11:50:46;;;;;;;62.78;38.60;;;8.50;99.90;;;;;;5005978;28;20038;-72
2023/02/23 11:53:36;;;;;;;65.80;39.28;;;8.50;99.90;;;;;;5018232;28;20053;-73
2023/02/23 11:56:11;;;;;;;64.95;38.50;;;8.60;99.90;;;;;;5025875;28;20084;-73
2023/02/23 11:58:48;;;;;;;62.42;38.42;;;8.60;99.90;;;;;;5017712;28;20072;-73
2023/02/23 12:01:22;;;;;;;66.72;39.42;;;8.60;99.90;;;;;;5003373;28;20052;-73
2023/02/23 12:03:56;;;;;;;63.30;39.33;;;8.50;99.90;;;;;;5003020;28;20041;-72
2023/02/23 12:06:37;;;;;;;67.72;39.20;;;8.50;99.90;;;;;;5005687;28;20153;-73
2023/02/23 12:09:19;;;;;;;71.03;40.60;;;8.50;99.90;;;;;;5017889;28;20052;-73
2023/02/23 12:12:17;;;;;;;73.22;39.97;;;8.50;99.90;;;;;;5003264;28;20505;-73
2023/02/23 12:14:59;;;;;;;74.10;39.75;;;8.60;99.90;;;;;;4997230;28;20433;-73
2023/02/23 12:17:57;;;;;;;73.47;38.30;;;8.50;99.90;;;;;;5012002;28;20072;-73
2023/02/23 12:20:33;;;;;;;77.47;38.85;;;8.50;99.90;;;;;;5014595;28;20061;-73
2023/02/23 12:23:10;;;;;;;75.32;37.40;;;8.50;99.90;;;;;;4998400;28;20049;-72
2023/02/23 12:25:46;;;;;;;76.68;38.42;;;8.50;99.90;;;;;;5011208;28;20049;-72
2023/02/23 12:28:21;;;;;;;80.35;39.83;;;8.60;99.90;;;;;;5014560;28;20038;-73
2023/02/23 12:30:53;;;;;;;68.28;36.00;;;8.60;99.90;;;;;;5014809;28;20061;-73
2023/02/23 12:33:38;;;;;;;73.28;36.85;;;8.60;99.90;;;;;;5017376;28;20054;-72
2023/02/23 12:36:19;;;;;;;72.25;37.38;;;8.60;99.90;;;;;;4992244;28;20563;-72
2023/02/23 12:38:56;;;;;;;66.80;33.85;;;8.60;99.90;;;;;;5018451;28;20160;-72
2023/02/23 12:41:31;;;;;;;65.72;31.23;;;8.60;99.90;;;;;;5016021;28;20631;-73
2023/02/23 12:44:26;;;;;;;61.65;30.73;;;8.70;99.90;;;;;;5004811;28;20133;-72
2023/02/23 12:46:55;;;;;;;61.05;29.80;;;8.80;99.90;;;;;;5012905;28;20092;-73
2023/02/23 12:49:44;;;;;;;59.13;28.83;;;8.80;99.90;;;;;;4990986;28;20053;-72
2023/02/23 12:52:26;;;;;;;55.70;27.10;;;8.80;99.90;;;;;;5017875;28;20115;-73
2023/02/23 12:54:52;;;;;;;61.42;28.85;;;8.90;99.90;;;;;;5012287;28;20049;-72
2023/02/23 12:57:31;;;;;;;60.55;26.98;;;8.90;99.90;;;;;;5002573;28;20054;-72
2023/02/23 13:00:29;;;;;;;63.45;29.23;;;8.90;99.90;;;;;;5013393;28;20046;-72
2023/02/23 13:03:10;;;;;;;61.75;28.65;;;8.90;99.90;;;;;;5012313;28;20042;-72
2023/02/23 13:05:56;;;;;;;57.33;26.38;;;8.90;99.90;;;;;;5017871;28;20516;-72
2023/02/23 13:08:34;;;;;;;57.20;27.42;;;8.90;99.90;;;;;;5019213;28;20038;-72
2023/02/23 13:11:09;;;;;;;61.10;28.15;;;8.90;99.90;;;;;;5000093;28;20174;-72
2023/02/23 13:13:45;;;;;;;67.50;30.98;;;8.80;99.90;;;;;;5005465;28;20084;-72
2023/02/23 13:16:35;;;;;;;63.05;28.83;;;8.80;99.90;;;;;;5003815;28;20052;-73
2023/02/23 13:19:20;;;;;;;61.65;29.52;;;8.90;99.90;;;;;;5009975;28;20087;-73
2023/02/23 13:22:21;;;;;;;64.15;28.58;;;8.90;99.90;;;;;;5000132;28;20040;-73
2023/02/23 13:24:50;;;;;;;62.20;30.05;;;8.90;99.90;;;;;;4983758;28;20128;-73
2023/02/23 13:27:26;;;;;;;62.50;29.40;;;8.90;99.90;;;;;;5014979;28;20042;-73
2023/02/23 13:29:57;;;;;;;65.40;30.15;;;8.90;99.90;;;;;;5014757;28;20471;-74
2023/02/23 13:32:28;;;;;;;64.95;30.50;;;8.80;99.90;;;;;;5013516;28;20053;-73
2023/02/23 13:34:59;;;;;;;62.90;29.55;;;8.80;99.90;;;;;;5016471;28;20140;-73
2023/02/23 13:37:34;;;;;;;70.57;31.70;;;8.80;99.90;;;;;;5010052;28;20053;-73
2023/02/23 13:40:18;;;;;;;68.65;32.55;;;8.80;99.90;;;;;;5015393;28;20050;-73
2023/02/23 13:42:57;;;;;;;73.72;34.10;;;8.80;99.90;;;;;;5025742;28;20060;-73
2023/02/23 13:45:30;;;;;;;80.80;34.88;;;8.80;99.90;;;;;;5014053;28;20089;-73
2023/02/23 13:48:12;;;;;;;78.40;35.50;;;8.80;99.90;;;;;;4998023;28;20045;-73
2023/02/23 13:50:57;;;;;;;90.38;37.97;;;8.80;99.90;;;;;;5014203;28;20050;-74
2023/02/23 13:53:36;;;;;;;85.03;39.05;;;8.80;99.90;;;;;;5014028;28;20049;-74
2023/02/23 13:56:17;;;;;;;86.55;37.47;;;8.80;99.90;;;;;;5022683;28;20078;-74
2023/02/23 13:59:08;;;;;;;90.75;39.08;;;8.80;99.90;;;;;;5025744;28;20156;-73
2023/02/23 14:01:42;;;;;;;81.20;36.38;;;8.80;99.90;;;;;;5003427;28;20038;-73
2023/02/23 14:04:35;;;;;;;82.82;37.88;;;8.80;99.90;;;;;;5018289;28;20064;-73
2023/02/23 14:07:10;;;;;;;94.07;39.40;;;8.80;99.90;;;;;;5011314;28;20089;-73
2023/02/23 14:09:58;;;;;;;93.35;40.55;;;8.80;99.90;;;;;;5027705;28;20046;-72
2023/02/23 14:12:32;;;;;;;70.80;32.53;;;8.80;99.90;;;;;;5013485;28;20061;-72
2023/02/23 14:15:20;;;;;;;39.47;14.63;;;8.80;99.90;;;;;;5027945;28;20511;-73
2023/02/23 14:18:19;;;;;;;33.28;12.90;;;8.70;99.90;;;;;;5015152;28;20140;-73